createdAt,value
2023-03-26T00:00:17.257Z,0.82
2023-03-26T00:06:08.810Z,2.45
2023-03-26T00:12:01.632Z,2.97
2023-03-26T00:17:51.836Z,2.92
2023-03-26T00:23:13.474Z,2.88
2023-03-26T00:28:35.718Z,1.35
2023-03-26T00:34:27.948Z,3.22
2023-03-26T00:47:21.344Z,3.55
2023-03-26T00:52:46.324Z,2.08
2023-03-26T00:58:15.161Z,6.38
2023-03-26T01:03:52.993Z,2.13
2023-03-26T01:10:38.804Z,2.60
2023-03-26T01:16:37.422Z,1.85
2023-03-26T01:22:01.543Z,2.13
2023-03-26T01:28:00.977Z,2.55
2023-03-26T01:42:08.285Z,2.30
2023-03-26T01:47:39.999Z,3.65
2023-03-26T01:54:02.143Z,2.08
2023-03-26T02:00:11.788Z,1.90
2023-03-26T02:13:45.578Z,2.22
2023-03-26T02:19:21.931Z,3.75
2023-03-26T02:24:43.562Z,2.13
2023-03-26T02:31:04.993Z,2.63
2023-03-26T02:36:27.503Z,1.90
2023-03-26T02:41:52.113Z,4.30
2023-03-26T02:47:13.396Z,2.47
2023-03-26T02:53:37.684Z,1.42
2023-03-26T02:59:30.429Z,2.65
2023-03-26T03:06:03.138Z,2.70
2023-03-26T03:11:56.871Z,3.38
2023-03-26T03:17:55.901Z,2.55
2023-03-26T03:23:49.092Z,3.05
2023-03-26T03:30:45.932Z,2.92
2023-03-26T03:37:11.009Z,2.67
2023-03-26T03:42:46.641Z,3.33
2023-03-26T03:49:17.076Z,3.92
2023-03-26T03:55:07.379Z,3.33
2023-03-26T04:01:33.068Z,2.92
2023-03-26T04:07:37.110Z,2.85
2023-03-26T04:13:29.467Z,2.33
2023-03-26T04:19:58.218Z,1.75
2023-03-26T04:25:30.731Z,2.50
2023-03-26T04:33:31.860Z,3.05
2023-03-26T04:38:53.392Z,5.55
2023-03-26T04:44:22.641Z,1.13
2023-03-26T04:50:45.469Z,2.88
2023-03-26T04:56:44.145Z,1.85
2023-03-26T05:02:59.499Z,3.88
2023-03-26T05:08:56.500Z,2.72
2023-03-26T05:14:38.753Z,4.03
2023-03-26T05:20:20.702Z,2.25
2023-03-26T05:25:41.382Z,4.50
2023-03-26T05:31:10.144Z,3.85
2023-03-26T05:36:37.935Z,3.53
2023-03-26T05:42:23.329Z,3.67
2023-03-26T05:48:00.053Z,3.70
2023-03-26T05:53:21.585Z,3.67
2023-03-26T05:59:22.500Z,5.65
2023-03-26T06:05:54.189Z,2.67
2023-03-26T06:12:16.466Z,3.40
2023-03-26T06:18:41.195Z,4.35
2023-03-26T06:25:11.459Z,2.55
2023-03-26T06:32:18.514Z,4.90
2023-03-26T06:37:48.209Z,3.63
2023-03-26T06:44:14.944Z,4.90
2023-03-26T06:51:12.945Z,2.65
2023-03-26T06:57:05.682Z,1.83
2023-03-26T07:03:30.026Z,4.40
2023-03-26T07:09:19.186Z,6.13
2023-03-26T07:15:40.326Z,4.22
2023-03-26T07:37:53.117Z,3.28
2023-03-26T07:44:17.671Z,3.55
2023-03-26T07:58:36.826Z,7.55
2023-03-26T08:04:51.329Z,5.13
2023-03-26T08:11:26.125Z,6.15
2023-03-26T08:17:11.751Z,3.00
2023-03-26T08:22:41.841Z,2.90
2023-03-26T08:28:16.496Z,3.58
2023-03-26T08:33:45.902Z,2.10
2023-03-26T08:39:06.803Z,3.22
2023-03-26T08:44:58.055Z,4.70
2023-03-26T08:50:46.829Z,3.70
2023-03-26T08:56:19.943Z,5.50
2023-03-26T09:02:21.798Z,4.82
2023-03-26T09:13:28.323Z,3.08
2023-03-26T09:19:30.731Z,2.25
2023-03-26T09:24:54.660Z,3.75
2023-03-26T09:30:22.211Z,2.70
2023-03-26T09:35:54.153Z,2.85
2023-03-26T09:41:21.718Z,3.03
2023-03-26T09:47:03.773Z,1.92
2023-03-26T09:52:50.216Z,1.08
2023-03-26T09:58:38.342Z,2.10
2023-03-26T10:04:40.547Z,3.47
2023-03-26T10:10:19.875Z,2.43
2023-03-26T10:15:52.499Z,3.55
2023-03-26T10:21:34.843Z,4.32
2023-03-26T10:27:17.551Z,3.67
2023-03-26T10:33:09.768Z,3.33
2023-03-26T10:38:52.633Z,4.53
2023-03-26T10:44:35.338Z,3.92
2023-03-26T10:50:04.872Z,5.40
2023-03-26T10:55:33.940Z,7.15
2023-03-26T11:01:05.589Z,5.32
2023-03-26T11:06:31.179Z,4.50
2023-03-26T11:12:37.313Z,3.95
2023-03-26T11:18:23.922Z,4.43
2023-03-26T11:24:04.863Z,4.78
2023-03-26T11:29:49.092Z,6.10
2023-03-26T11:40:48.876Z,4.38
2023-03-26T11:46:18.793Z,3.40
2023-03-26T11:51:40.324Z,4.90
2023-03-26T11:57:10.236Z,5.57
2023-03-26T12:02:38.729Z,4.05
2023-03-26T12:08:00.888Z,7.70
2023-03-26T12:13:42.173Z,4.88
2023-03-26T12:19:10.187Z,3.95
2023-03-26T12:24:32.698Z,4.85
2023-03-26T12:30:35.579Z,5.88
2023-03-26T12:35:58.068Z,7.18
2023-03-26T12:44:42.140Z,4.32
2023-03-26T12:48:26.636Z,5.53
2023-03-26T12:54:28.834Z,5.53
2023-03-26T13:00:12.252Z,4.68
2023-03-26T13:06:10.625Z,3.85
2023-03-26T13:12:00.827Z,6.60
2023-03-26T13:18:02.429Z,4.57
2023-03-26T13:39:19.270Z,5.07
2023-03-26T14:01:01.940Z,3.83
2023-03-26T14:06:42.112Z,4.53
2023-03-26T14:12:26.489Z,5.00
2023-03-26T14:18:06.157Z,7.75
2023-03-26T14:24:00.653Z,5.43
2023-03-26T14:29:35.152Z,4.72
2023-03-26T14:35:20.198Z,5.25
2023-03-26T14:41:10.514Z,5.80
2023-03-26T14:47:01.600Z,4.35
2023-03-26T14:53:01.291Z,6.88
2023-03-26T14:58:47.855Z,6.25
2023-03-26T15:04:30.615Z,4.72
2023-03-26T15:10:10.276Z,5.90
2023-03-26T15:15:55.908Z,6.82
2023-03-26T15:21:53.253Z,7.78
2023-03-26T15:27:26.851Z,6.38
2023-03-26T15:33:24.827Z,5.22
2023-03-26T15:39:05.522Z,6.75
2023-03-26T15:45:00.657Z,4.15
2023-03-26T15:50:33.871Z,4.13
2023-03-26T15:56:07.311Z,5.43
2023-03-26T16:09:27.095Z,3.45
2023-03-26T16:14:48.568Z,2.03
2023-03-26T16:20:32.676Z,2.85
2023-03-26T16:26:17.191Z,2.70
2023-03-26T16:31:39.447Z,4.60
2023-03-26T16:37:00.817Z,2.80
2023-03-26T16:42:27.710Z,3.28
2023-03-26T16:48:01.631Z,3.42
2023-03-26T17:01:32.648Z,5.15
2023-03-26T17:07:08.826Z,3.22
2023-03-26T17:12:33.817Z,4.18
2023-03-26T17:18:19.484Z,4.90
2023-03-26T17:24:07.986Z,5.45
2023-03-26T17:30:03.911Z,5.80
2023-03-26T17:35:38.108Z,3.63
2023-03-26T17:40:59.670Z,5.10
2023-03-26T17:46:56.044Z,6.47
2023-03-26T17:52:48.420Z,8.68
2023-03-26T17:58:29.195Z,8.48
2023-03-26T18:03:51.569Z,9.07
2023-03-26T18:09:24.652Z,8.02
2023-03-26T18:15:19.289Z,8.25
2023-03-26T18:26:43.253Z,7.35
2023-03-26T18:32:40.939Z,7.53
2023-03-26T18:38:03.505Z,7.20
2023-03-26T18:43:35.135Z,8.68
2023-03-26T18:49:03.242Z,5.43
2023-03-26T18:54:24.929Z,7.28
2023-03-26T19:00:28.499Z,7.55
2023-03-26T19:05:50.409Z,10.23
2023-03-26T19:11:44.238Z,8.80
2023-03-26T19:17:35.435Z,13.47
2023-03-26T19:22:59.930Z,10.50
2023-03-26T19:28:56.340Z,12.10
2023-03-26T19:34:26.101Z,14.32
2023-03-26T19:39:51.959Z,13.60
2023-03-26T19:45:59.675Z,16.90
2023-03-26T19:51:24.116Z,16.48
2023-03-26T19:56:44.940Z,14.10
2023-03-26T20:02:10.919Z,12.27
2023-03-26T20:08:15.125Z,11.25
2023-03-26T20:13:44.970Z,12.40
2023-03-26T20:19:05.851Z,15.73
2023-03-26T20:24:34.971Z,11.40
2023-03-26T20:29:56.036Z,9.05
2023-03-26T20:35:35.537Z,6.70
2023-03-26T20:40:58.316Z,6.88
2023-03-26T20:46:21.456Z,6.85
2023-03-26T20:51:43.718Z,10.30
2023-03-26T20:57:04.688Z,7.05
2023-03-26T21:02:27.111Z,6.68
2023-03-26T21:07:48.710Z,6.97
2023-03-26T21:13:25.213Z,6.28
2023-03-26T21:18:46.525Z,7.40
2023-03-26T21:24:23.912Z,6.93
2023-03-26T21:29:44.874Z,8.07
2023-03-26T21:35:06.443Z,10.73
2023-03-26T21:40:28.054Z,14.43
2023-03-26T21:45:50.385Z,11.55
2023-03-26T21:51:14.832Z,14.70
2023-03-26T21:56:41.618Z,17.45
2023-03-26T22:02:13.839Z,17.27
2023-03-26T22:07:47.510Z,15.25
2023-03-26T22:13:08.426Z,16.02
2023-03-26T22:18:30.139Z,19.85
2023-03-26T22:23:54.653Z,15.23
2023-03-26T22:29:15.809Z,12.43
2023-03-26T22:34:38.143Z,12.10
2023-03-26T22:40:00.110Z,13.32
2023-03-26T22:45:20.620Z,9.85
2023-03-26T22:50:41.299Z,11.38
2023-03-26T22:56:02.921Z,7.75
2023-03-26T23:01:24.255Z,7.78
2023-03-26T23:06:45.295Z,8.82
2023-03-26T23:12:08.555Z,7.13
2023-03-26T23:17:29.505Z,6.38
2023-03-26T23:22:50.764Z,6.53
2023-03-26T23:28:12.036Z,7.68
2023-03-26T23:33:35.393Z,8.40
2023-03-26T23:38:56.573Z,6.35
2023-03-26T23:44:17.586Z,7.40
2023-03-26T23:49:38.258Z,7.25
2023-03-26T23:54:59.920Z,7.45
